Sunday, June 17, 2018, 9:54 PM EDT
Back to Local

KTTN, Trenton Mercer County Airport

Location: Trenton, NJ, United States Lat: 40.283
Local Time: 9:54 PM EDT ( 1:54 GMT) Lon: -74.817
Time Zone: US/Eastern Elev: 213 ft

Show me the last for .
Show Decoded

2018-06-17 20:53 METAR KTTN 180053Z 18009KT 10SM CLR 27/17 A3005 RMK AO2 SLP166 T02670167 =
2018-06-17 19:53 METAR KTTN 172353Z 16008KT 10SM CLR 28/16 A3005 RMK AO2 SLP168 T02780161 10328
                 20278 53002 =
2018-06-17 18:53 METAR KTTN 172253Z 16003KT 10SM CLR 31/17 A3004 RMK AO2 SLP165 T03060167 =
2018-06-17 17:53 METAR KTTN 172153Z 17003KT 10SM OVC070 31/16 A3004 RMK AO2 SLP166 T03110156 =
2018-06-17 16:53 METAR KTTN 172053Z 26004KT 10SM CLR 32/16 A3004 RMK AO2 SLP166 T03170161 56005 =
2018-06-17 15:53 METAR KTTN 171953Z VRB03KT 10SM CLR 32/15 A3005 RMK AO2 SLP167 T03170150 =
2018-06-17 14:53 METAR KTTN 171853Z 17007KT 10SM CLR 31/15 A3005 RMK AO2 SLP168 T03110150 =
2018-06-17 13:53 METAR KTTN 171753Z 00000KT 10SM CLR 31/13 A3006 RMK AO2 SLP171 T03110133 10311
                 20211 58012 =
2018-06-17 12:53 METAR KTTN 171653Z 20003KT 10SM CLR 30/16 A3007 RMK AO2 SLP175 T03000156 =
2018-06-17 11:53 METAR KTTN 171553Z 23007KT 10SM CLR 29/14 A3009 RMK AO2 SLP182 T02940144 =
2018-06-17 10:53 METAR KTTN 171453Z 00000KT 10SM CLR 29/13 A3010 RMK AO2 SLP184 T02940133 51005 =
2018-06-17 09:53 METAR KTTN 171353Z 31003KT 10SM CLR 27/15 A3009 RMK AO2 SLP181 T02720150 =
2018-06-17 08:53 METAR KTTN 171253Z 00000KT 10SM CLR 26/16 A3009 RMK AO2 SLP182 T02560161 =
2018-06-17 07:53 METAR KTTN 171153Z 00000KT 10SM CLR 21/17 A3008 RMK AO2 SLP179 T02110167 10211
                 20156 53014 =
2018-06-17 06:53 METAR KTTN 171053Z 00000KT 10SM CLR 19/16 A3007 RMK AO2 SLP174 T01890156 =
2018-06-17 05:53 METAR KTTN 170953Z 31003KT 10SM CLR 16/14 A3006 RMK AO2 SLP171 T01610139 =
2018-06-17 04:53 METAR KTTN 170853Z AUTO 00000KT 10SM CLR 17/14 A3004 RMK AO2 SLP166 T01720144
                 53001 =
2018-06-17 03:53 METAR KTTN 170753Z AUTO 00000KT 10SM CLR 18/14 A3003 RMK AO2 SLP164 T01780144 =
2018-06-17 02:53 METAR KTTN 170653Z AUTO 00000KT 10SM CLR 18/14 A3003 RMK AO2 SLP164 T01830144 =
2018-06-17 01:53 METAR KTTN 170553Z AUTO 00000KT 10SM CLR 19/15 A3004 RMK AO2 SLP166 T01890150
                 10272 20178 50003 =
2018-06-17 00:53 METAR KTTN 170453Z AUTO 00000KT 10SM CLR 19/15 A3005 RMK AO2 SLP169 T01940150
                 402890128 =
2018-06-16 23:53 METAR KTTN 170353Z AUTO 00000KT 10SM CLR 22/14 A3003 RMK AO2 SLP163 T02170144 =
2018-06-16 22:53 METAR KTTN 170253Z AUTO 00000KT 10SM CLR 22/14 A3003 RMK AO2 SLP161 T02170139
                 53012 =

Support USWX by starting your Amazon purchase here.